Pagrindinis puslapis
METAR-TAF:

METAR-TAF

Oro uostai :

Pajala, Švedija

platuma: 67-14-44N, ilguma: 023-04-08E, Aukštis: 165 m

Dabartinis oras

Ataskaita buvo paskelbta 37 minutes, ne 06:20 UTC
Vėjas 6 kt iš Vakarų, svyruoja nuo Pietvakarių ir Vakarų/Šiaurės Vakarų
Temperatūra -4°C
Drėgmė 63%
Slėgis 1010 hPa
Matomumas 10 km arba daugiau

METAR: ESUP 100620Z AUTO 26006KT 220V290 9999 // NCD M04/M10 Q1010

Laikas: 08:57 (06:57 UTC)


TAF: trūkstamas

Orai ataskaitas ir orų prognozės (METAR, TAF).

turimą stotys yra geltonos ir raudonos taškus žemėlapyje.

Perkelti pele per norėdami pamatyti stoties vardą.

Tada spustelėkite, norėdami matyti oro stebėjimo ir prognozės.

Norėdami pakeisti žemėlapį: spustelėkite ant žalios mygtukų su juodo kryžiaus žemyn,; žalią mygtuką su brūkšneliu, jei norite nutolinti; arba žalių rodyklių gretimoms žemėlapius.


METAR-TAF: